sensor_id;sensor_type;location;lat;lon;timestamp;P1;durP1;ratioP1;P2;durP2;ratioP2
47669;SDS011;33408;52.062;11.722;2023-04-25T00:00:31;9.57;;;5.40;;
47669;SDS011;33408;52.062;11.722;2023-04-25T00:02:58;10.73;;;5.00;;
47669;SDS011;33408;52.062;11.722;2023-04-25T00:05:25;9.88;;;5.57;;
47669;SDS011;33408;52.062;11.722;2023-04-25T00:07:52;12.52;;;6.00;;
47669;SDS011;33408;52.062;11.722;2023-04-25T00:10:20;9.10;;;5.10;;
47669;SDS011;33408;52.062;11.722;2023-04-25T00:12:47;12.73;;;5.60;;
47669;SDS011;33408;52.062;11.722;2023-04-25T00:15:13;9.65;;;5.78;;
47669;SDS011;33408;52.062;11.722;2023-04-25T00:17:41;10.23;;;5.95;;
47669;SDS011;33408;52.062;11.722;2023-04-25T00:20:07;9.48;;;5.75;;
47669;SDS011;33408;52.062;11.722;2023-04-25T00:22:35;11.98;;;5.78;;
47669;SDS011;33408;52.062;11.722;2023-04-25T00:25:03;10.35;;;5.93;;
47669;SDS011;33408;52.062;11.722;2023-04-25T00:27:32;11.27;;;6.35;;
47669;SDS011;33408;52.062;11.722;2023-04-25T00:29:59;11.40;;;6.20;;
47669;SDS011;33408;52.062;11.722;2023-04-25T00:32:26;9.60;;;6.10;;
47669;SDS011;33408;52.062;11.722;2023-04-25T00:34:52;10.02;;;6.05;;
47669;SDS011;33408;52.062;11.722;2023-04-25T00:37:20;12.70;;;6.20;;
47669;SDS011;33408;52.062;11.722;2023-04-25T00:39:47;10.32;;;6.07;;
47669;SDS011;33408;52.062;11.722;2023-04-25T00:42:14;12.73;;;7.90;;
47669;SDS011;33408;52.062;11.722;2023-04-25T00:44:43;9.75;;;5.93;;
47669;SDS011;33408;52.062;11.722;2023-04-25T00:47:11;11.85;;;6.57;;
47669;SDS011;33408;52.062;11.722;2023-04-25T00:49:38;13.48;;;7.10;;
47669;SDS011;33408;52.062;11.722;2023-04-25T00:52:04;10.25;;;6.20;;
47669;SDS011;33408;52.062;11.722;2023-04-25T00:54:31;10.43;;;7.07;;
47669;SDS011;33408;52.062;11.722;2023-04-25T00:56:58;13.88;;;7.38;;
47669;SDS011;33408;52.062;11.722;2023-04-25T00:59:25;10.45;;;6.18;;
47669;SDS011;33408;52.062;11.722;2023-04-25T01:01:56;13.35;;;7.90;;
47669;SDS011;33408;52.062;11.722;2023-04-25T01:04:23;11.20;;;6.90;;
47669;SDS011;33408;52.062;11.722;2023-04-25T01:06:49;12.10;;;7.88;;
47669;SDS011;33408;52.062;11.722;2023-04-25T01:09:16;10.05;;;6.90;;
47669;SDS011;33408;52.062;11.722;2023-04-25T01:11:42;16.00;;;7.40;;
47669;SDS011;33408;52.062;11.722;2023-04-25T01:14:09;11.32;;;6.75;;
47669;SDS011;33408;52.062;11.722;2023-04-25T01:16:36;16.38;;;7.63;;
47669;SDS011;33408;52.062;11.722;2023-04-25T01:19:05;12.55;;;7.40;;
47669;SDS011;33408;52.062;11.722;2023-04-25T01:21:38;13.15;;;7.00;;
47669;SDS011;33408;52.062;11.722;2023-04-25T01:24:05;12.07;;;7.57;;
47669;SDS011;33408;52.062;11.722;2023-04-25T01:26:32;14.57;;;7.32;;
47669;SDS011;33408;52.062;11.722;2023-04-25T01:29:00;11.23;;;7.63;;
47669;SDS011;33408;52.062;11.722;2023-04-25T01:31:27;12.88;;;7.47;;
47669;SDS011;33408;52.062;11.722;2023-04-25T01:33:54;14.82;;;7.72;;
47669;SDS011;33408;52.062;11.722;2023-04-25T01:36:21;17.15;;;7.50;;
47669;SDS011;33408;52.062;11.722;2023-04-25T01:38:49;18.60;;;8.23;;
47669;SDS011;33408;52.062;11.722;2023-04-25T01:41:17;12.68;;;7.60;;
47669;SDS011;33408;52.062;11.722;2023-04-25T01:43:44;15.45;;;7.40;;
47669;SDS011;33408;52.062;11.722;2023-04-25T01:46:11;17.13;;;8.60;;
47669;SDS011;33408;52.062;11.722;2023-04-25T01:48:38;16.00;;;8.48;;
47669;SDS011;33408;52.062;11.722;2023-04-25T01:51:05;16.05;;;8.23;;
47669;SDS011;33408;52.062;11.722;2023-04-25T01:53:32;13.80;;;7.55;;
47669;SDS011;33408;52.062;11.722;2023-04-25T01:56:00;13.23;;;7.25;;
47669;SDS011;33408;52.062;11.722;2023-04-25T01:58:26;13.95;;;7.03;;
47669;SDS011;33408;52.062;11.722;2023-04-25T02:00:53;12.50;;;7.30;;
47669;SDS011;33408;52.062;11.722;2023-04-25T02:03:20;14.52;;;8.70;;
47669;SDS011;33408;52.062;11.722;2023-04-25T02:05:46;16.52;;;8.13;;
47669;SDS011;33408;52.062;11.722;2023-04-25T02:08:13;12.48;;;7.15;;
47669;SDS011;33408;52.062;11.722;2023-04-25T02:10:39;15.82;;;8.45;;
47669;SDS011;33408;52.062;11.722;2023-04-25T02:13:07;16.80;;;7.78;;
47669;SDS011;33408;52.062;11.722;2023-04-25T02:15:34;15.05;;;7.78;;
47669;SDS011;33408;52.062;11.722;2023-04-25T02:18:01;15.98;;;8.10;;
47669;SDS011;33408;52.062;11.722;2023-04-25T02:20:28;11.75;;;6.88;;
47669;SDS011;33408;52.062;11.722;2023-04-25T02:22:56;15.43;;;6.72;;
47669;SDS011;33408;52.062;11.722;2023-04-25T02:25:23;14.48;;;7.28;;
47669;SDS011;33408;52.062;11.722;2023-04-25T02:27:49;11.65;;;6.18;;
47669;SDS011;33408;52.062;11.722;2023-04-25T02:30:17;14.00;;;7.57;;
47669;SDS011;33408;52.062;11.722;2023-04-25T02:32:44;13.65;;;7.60;;
47669;SDS011;33408;52.062;11.722;2023-04-25T02:35:11;11.65;;;6.25;;
47669;SDS011;33408;52.062;11.722;2023-04-25T02:37:38;12.55;;;6.10;;
47669;SDS011;33408;52.062;11.722;2023-04-25T02:40:05;12.13;;;6.53;;
47669;SDS011;33408;52.062;11.722;2023-04-25T02:42:33;14.25;;;6.75;;
47669;SDS011;33408;52.062;11.722;2023-04-25T02:45:00;18.25;;;6.90;;
47669;SDS011;33408;52.062;11.722;2023-04-25T02:47:28;14.73;;;6.82;;
47669;SDS011;33408;52.062;11.722;2023-04-25T02:49:54;13.70;;;6.72;;
47669;SDS011;33408;52.062;11.722;2023-04-25T02:52:21;18.23;;;7.03;;
47669;SDS011;33408;52.062;11.722;2023-04-25T02:54:48;17.83;;;7.25;;
47669;SDS011;33408;52.062;11.722;2023-04-25T02:57:14;13.77;;;7.20;;
47669;SDS011;33408;52.062;11.722;2023-04-25T02:59:41;13.10;;;6.97;;
47669;SDS011;33408;52.062;11.722;2023-04-25T03:02:07;11.82;;;6.80;;
47669;SDS011;33408;52.062;11.722;2023-04-25T03:04:35;13.52;;;6.88;;
47669;SDS011;33408;52.062;11.722;2023-04-25T03:07:02;13.00;;;7.15;;
47669;SDS011;33408;52.062;11.722;2023-04-25T03:09:29;12.85;;;6.88;;
47669;SDS011;33408;52.062;11.722;2023-04-25T03:11:55;15.00;;;6.28;;
47669;SDS011;33408;52.062;11.722;2023-04-25T03:14:22;14.00;;;6.72;;
47669;SDS011;33408;52.062;11.722;2023-04-25T03:16:48;11.70;;;6.57;;
47669;SDS011;33408;52.062;11.722;2023-04-25T03:19:15;12.90;;;6.55;;
47669;SDS011;33408;52.062;11.722;2023-04-25T03:21:43;14.57;;;6.40;;
47669;SDS011;33408;52.062;11.722;2023-04-25T03:24:10;13.82;;;6.43;;
47669;SDS011;33408;52.062;11.722;2023-04-25T03:26:37;13.13;;;6.55;;
47669;SDS011;33408;52.062;11.722;2023-04-25T03:29:03;15.88;;;7.45;;
47669;SDS011;33408;52.062;11.722;2023-04-25T03:31:30;13.48;;;6.43;;
47669;SDS011;33408;52.062;11.722;2023-04-25T03:33:57;15.75;;;7.28;;
47669;SDS011;33408;52.062;11.722;2023-04-25T03:36:23;19.08;;;7.57;;
47669;SDS011;33408;52.062;11.722;2023-04-25T03:38:51;15.13;;;7.32;;
47669;SDS011;33408;52.062;11.722;2023-04-25T03:41:18;16.55;;;6.40;;
47669;SDS011;33408;52.062;11.722;2023-04-25T03:43:45;13.77;;;7.32;;
47669;SDS011;33408;52.062;11.722;2023-04-25T03:46:11;12.25;;;6.90;;
47669;SDS011;33408;52.062;11.722;2023-04-25T03:48:38;16.83;;;7.10;;
47669;SDS011;33408;52.062;11.722;2023-04-25T03:51:04;17.27;;;6.85;;
47669;SDS011;33408;52.062;11.722;2023-04-25T03:53:31;14.75;;;6.68;;
47669;SDS011;33408;52.062;11.722;2023-04-25T03:55:59;12.07;;;7.22;;
47669;SDS011;33408;52.062;11.722;2023-04-25T03:58:25;19.67;;;7.57;;
47669;SDS011;33408;52.062;11.722;2023-04-25T04:00:52;13.63;;;6.85;;
47669;SDS011;33408;52.062;11.722;2023-04-25T04:03:19;16.88;;;7.40;;
47669;SDS011;33408;52.062;11.722;2023-04-25T04:05:46;15.63;;;7.28;;
47669;SDS011;33408;52.062;11.722;2023-04-25T04:08:12;15.40;;;6.93;;
47669;SDS011;33408;52.062;11.722;2023-04-25T04:10:39;16.33;;;7.03;;
47669;SDS011;33408;52.062;11.722;2023-04-25T04:13:07;16.20;;;7.00;;
47669;SDS011;33408;52.062;11.722;2023-04-25T04:15:33;14.05;;;6.88;;
47669;SDS011;33408;52.062;11.722;2023-04-25T04:18:00;21.52;;;7.70;;
47669;SDS011;33408;52.062;11.722;2023-04-25T04:20:28;15.18;;;7.15;;
47669;SDS011;33408;52.062;11.722;2023-04-25T04:22:55;11.07;;;6.70;;
47669;SDS011;33408;52.062;11.722;2023-04-25T04:25:21;11.93;;;7.22;;
47669;SDS011;33408;52.062;11.722;2023-04-25T04:27:49;17.42;;;8.10;;
47669;SDS011;33408;52.062;11.722;2023-04-25T04:30:18;14.43;;;8.02;;
47669;SDS011;33408;52.062;11.722;2023-04-25T04:32:45;15.00;;;6.88;;
47669;SDS011;33408;52.062;11.722;2023-04-25T04:35:11;17.35;;;8.23;;
47669;SDS011;33408;52.062;11.722;2023-04-25T04:37:38;16.10;;;8.63;;
47669;SDS011;33408;52.062;11.722;2023-04-25T04:40:05;15.73;;;8.05;;
47669;SDS011;33408;52.062;11.722;2023-04-25T04:42:33;16.50;;;8.73;;
47669;SDS011;33408;52.062;11.722;2023-04-25T04:45:01;15.48;;;7.93;;
47669;SDS011;33408;52.062;11.722;2023-04-25T04:47:29;20.63;;;8.43;;
47669;SDS011;33408;52.062;11.722;2023-04-25T04:49:56;16.65;;;8.27;;
47669;SDS011;33408;52.062;11.722;2023-04-25T04:52:24;16.02;;;9.20;;
47669;SDS011;33408;52.062;11.722;2023-04-25T04:54:51;17.38;;;9.48;;
47669;SDS011;33408;52.062;11.722;2023-04-25T04:57:17;14.70;;;9.38;;
47669;SDS011;33408;52.062;11.722;2023-04-25T04:59:44;19.00;;;8.98;;
47669;SDS011;33408;52.062;11.722;2023-04-25T05:02:11;20.90;;;10.80;;
47669;SDS011;33408;52.062;11.722;2023-04-25T05:04:39;15.35;;;9.63;;
47669;SDS011;33408;52.062;11.722;2023-04-25T05:07:05;20.55;;;10.40;;
47669;SDS011;33408;52.062;11.722;2023-04-25T05:09:32;19.00;;;10.93;;
47669;SDS011;33408;52.062;11.722;2023-04-25T05:11:59;18.60;;;11.05;;
47669;SDS011;33408;52.062;11.722;2023-04-25T05:14:26;20.77;;;12.20;;
47669;SDS011;33408;52.062;11.722;2023-04-25T05:16:52;16.55;;;10.77;;
47669;SDS011;33408;52.062;11.722;2023-04-25T05:19:20;20.20;;;13.07;;
47669;SDS011;33408;52.062;11.722;2023-04-25T05:21:48;25.50;;;14.13;;
47669;SDS011;33408;52.062;11.722;2023-04-25T05:24:15;21.15;;;12.75;;
47669;SDS011;33408;52.062;11.722;2023-04-25T05:26:41;20.35;;;14.73;;
47669;SDS011;33408;52.062;11.722;2023-04-25T05:29:08;26.42;;;15.63;;
47669;SDS011;33408;52.062;11.722;2023-04-25T05:31:35;24.88;;;14.50;;
47669;SDS011;33408;52.062;11.722;2023-04-25T05:34:02;22.05;;;13.95;;
47669;SDS011;33408;52.062;11.722;2023-04-25T05:36:28;21.73;;;15.32;;
47669;SDS011;33408;52.062;11.722;2023-04-25T05:38:57;27.08;;;14.88;;
47669;SDS011;33408;52.062;11.722;2023-04-25T05:41:23;20.40;;;14.75;;
47669;SDS011;33408;52.062;11.722;2023-04-25T05:43:50;22.42;;;12.95;;
47669;SDS011;33408;52.062;11.722;2023-04-25T05:46:17;22.95;;;14.60;;
47669;SDS011;33408;52.062;11.722;2023-04-25T05:48:43;19.55;;;14.60;;
47669;SDS011;33408;52.062;11.722;2023-04-25T05:51:10;25.45;;;15.70;;
47669;SDS011;33408;52.062;11.722;2023-04-25T05:53:36;21.23;;;14.70;;
47669;SDS011;33408;52.062;11.722;2023-04-25T05:56:04;19.30;;;13.18;;
47669;SDS011;33408;52.062;11.722;2023-04-25T05:58:38;18.67;;;12.02;;
47669;SDS011;33408;52.062;11.722;2023-04-25T06:01:05;19.13;;;11.57;;
47669;SDS011;33408;52.062;11.722;2023-04-25T06:03:32;14.88;;;9.18;;
47669;SDS011;33408;52.062;11.722;2023-04-25T06:05:58;18.98;;;10.82;;
47669;SDS011;33408;52.062;11.722;2023-04-25T06:08:25;17.02;;;11.43;;
47669;SDS011;33408;52.062;11.722;2023-04-25T06:10:51;14.57;;;8.25;;
47669;SDS011;33408;52.062;11.722;2023-04-25T06:13:19;14.75;;;9.15;;
47669;SDS011;33408;52.062;11.722;2023-04-25T06:15:46;12.98;;;7.55;;
47669;SDS011;33408;52.062;11.722;2023-04-25T06:18:12;15.25;;;6.65;;
47669;SDS011;33408;52.062;11.722;2023-04-25T06:20:39;13.32;;;5.78;;
47669;SDS011;33408;52.062;11.722;2023-04-25T06:23:05;15.88;;;6.45;;
47669;SDS011;33408;52.062;11.722;2023-04-25T06:25:32;11.02;;;4.55;;
47669;SDS011;33408;52.062;11.722;2023-04-25T06:27:59;12.13;;;4.68;;
47669;SDS011;33408;52.062;11.722;2023-04-25T06:30:27;13.30;;;4.35;;
47669;SDS011;33408;52.062;11.722;2023-04-25T06:32:53;15.23;;;4.55;;
47669;SDS011;33408;52.062;11.722;2023-04-25T06:35:20;18.55;;;5.25;;
47669;SDS011;33408;52.062;11.722;2023-04-25T06:37:47;20.77;;;5.10;;
47669;SDS011;33408;52.062;11.722;2023-04-25T06:40:13;14.45;;;3.58;;
47669;SDS011;33408;52.062;11.722;2023-04-25T06:42:40;18.88;;;4.35;;
47669;SDS011;33408;52.062;11.722;2023-04-25T06:45:07;15.90;;;4.55;;
47669;SDS011;33408;52.062;11.722;2023-04-25T06:47:35;15.52;;;4.82;;
47669;SDS011;33408;52.062;11.722;2023-04-25T06:50:02;18.48;;;4.43;;
47669;SDS011;33408;52.062;11.722;2023-04-25T06:52:29;14.70;;;4.63;;
47669;SDS011;33408;52.062;11.722;2023-04-25T06:54:55;23.60;;;4.95;;
47669;SDS011;33408;52.062;11.722;2023-04-25T06:57:22;20.85;;;4.50;;
47669;SDS011;33408;52.062;11.722;2023-04-25T06:59:49;13.82;;;4.03;;
47669;SDS011;33408;52.062;11.722;2023-04-25T07:02:15;19.67;;;5.25;;
47669;SDS011;33408;52.062;11.722;2023-04-25T07:04:43;21.65;;;5.50;;
47669;SDS011;33408;52.062;11.722;2023-04-25T07:07:10;16.23;;;5.47;;
47669;SDS011;33408;52.062;11.722;2023-04-25T07:09:37;16.42;;;4.78;;
47669;SDS011;33408;52.062;11.722;2023-04-25T07:12:04;20.67;;;5.38;;
47669;SDS011;33408;52.062;11.722;2023-04-25T07:14:31;15.25;;;5.00;;
47669;SDS011;33408;52.062;11.722;2023-04-25T07:16:57;19.95;;;5.53;;
47669;SDS011;33408;52.062;11.722;2023-04-25T07:19:24;18.60;;;4.78;;
47669;SDS011;33408;52.062;11.722;2023-04-25T07:21:53;22.67;;;4.97;;
47669;SDS011;33408;52.062;11.722;2023-04-25T07:24:19;27.75;;;5.45;;
47669;SDS011;33408;52.062;11.722;2023-04-25T07:26:46;18.48;;;5.68;;
47669;SDS011;33408;52.062;11.722;2023-04-25T07:29:12;17.00;;;5.18;;
47669;SDS011;33408;52.062;11.722;2023-04-25T07:31:39;24.15;;;4.47;;
47669;SDS011;33408;52.062;11.722;2023-04-25T07:34:06;21.15;;;5.53;;
47669;SDS011;33408;52.062;11.722;2023-04-25T07:36:34;15.95;;;5.13;;
47669;SDS011;33408;52.062;11.722;2023-04-25T07:39:03;19.40;;;4.95;;
47669;SDS011;33408;52.062;11.722;2023-04-25T07:41:29;17.63;;;5.30;;
47669;SDS011;33408;52.062;11.722;2023-04-25T07:43:56;14.52;;;4.80;;
47669;SDS011;33408;52.062;11.722;2023-04-25T07:46:23;20.98;;;4.78;;
47669;SDS011;33408;52.062;11.722;2023-04-25T07:48:50;16.27;;;4.57;;
47669;SDS011;33408;52.062;11.722;2023-04-25T07:51:16;22.63;;;4.57;;
47669;SDS011;33408;52.062;11.722;2023-04-25T07:53:44;17.30;;;4.90;;
47669;SDS011;33408;52.062;11.722;2023-04-25T07:56:13;17.70;;;3.90;;
47669;SDS011;33408;52.062;11.722;2023-04-25T07:58:39;12.63;;;3.60;;
47669;SDS011;33408;52.062;11.722;2023-04-25T08:01:06;15.32;;;4.70;;
47669;SDS011;33408;52.062;11.722;2023-04-25T08:03:32;18.00;;;4.32;;
47669;SDS011;33408;52.062;11.722;2023-04-25T08:05:59;18.67;;;3.47;;
47669;SDS011;33408;52.062;11.722;2023-04-25T08:08:25;15.07;;;3.60;;
47669;SDS011;33408;52.062;11.722;2023-04-25T08:10:52;14.70;;;3.22;;
47669;SDS011;33408;52.062;11.722;2023-04-25T08:13:20;14.35;;;3.90;;
47669;SDS011;33408;52.062;11.722;2023-04-25T08:15:46;12.30;;;3.78;;
47669;SDS011;33408;52.062;11.722;2023-04-25T08:18:14;16.95;;;4.40;;
47669;SDS011;33408;52.062;11.722;2023-04-25T08:20:40;13.40;;;4.10;;
47669;SDS011;33408;52.062;11.722;2023-04-25T08:23:07;18.08;;;4.22;;
47669;SDS011;33408;52.062;11.722;2023-04-25T08:25:35;14.65;;;4.35;;
47669;SDS011;33408;52.062;11.722;2023-04-25T08:28:02;15.48;;;4.03;;
47669;SDS011;33408;52.062;11.722;2023-04-25T08:30:30;12.10;;;3.50;;
47669;SDS011;33408;52.062;11.722;2023-04-25T08:32:56;12.52;;;3.28;;
47669;SDS011;33408;52.062;11.722;2023-04-25T08:35:23;12.93;;;3.70;;
47669;SDS011;33408;52.062;11.722;2023-04-25T08:37:49;18.02;;;3.90;;
47669;SDS011;33408;52.062;11.722;2023-04-25T08:40:16;14.35;;;3.65;;
47669;SDS011;33408;52.062;11.722;2023-04-25T08:42:43;17.98;;;3.75;;
47669;SDS011;33408;52.062;11.722;2023-04-25T08:45:11;14.80;;;3.60;;
47669;SDS011;33408;52.062;11.722;2023-04-25T08:47:39;10.98;;;3.60;;
47669;SDS011;33408;52.062;11.722;2023-04-25T08:50:06;14.57;;;3.65;;
47669;SDS011;33408;52.062;11.722;2023-04-25T08:52:35;13.57;;;3.05;;
47669;SDS011;33408;52.062;11.722;2023-04-25T08:55:04;15.88;;;3.40;;
47669;SDS011;33408;52.062;11.722;2023-04-25T08:57:35;16.10;;;3.27;;
47669;SDS011;33408;52.062;11.722;2023-04-25T09:00:03;13.20;;;3.13;;
47669;SDS011;33408;52.062;11.722;2023-04-25T09:02:33;11.60;;;3.33;;
47669;SDS011;33408;52.062;11.722;2023-04-25T09:05:01;13.02;;;3.42;;
47669;SDS011;33408;52.062;11.722;2023-04-25T09:07:29;11.38;;;3.20;;
47669;SDS011;33408;52.062;11.722;2023-04-25T09:09:55;16.67;;;3.55;;
47669;SDS011;33408;52.062;11.722;2023-04-25T09:12:24;11.48;;;2.85;;
47669;SDS011;33408;52.062;11.722;2023-04-25T09:15:05;9.23;;;3.15;;
47669;SDS011;33408;52.062;11.722;2023-04-25T09:17:32;13.93;;;4.00;;
47669;SDS011;33408;52.062;11.722;2023-04-25T09:20:11;15.27;;;3.63;;
47669;SDS011;33408;52.062;11.722;2023-04-25T09:22:39;12.40;;;3.03;;
47669;SDS011;33408;52.062;11.722;2023-04-25T09:25:09;12.05;;;3.38;;
47669;SDS011;33408;52.062;11.722;2023-04-25T09:27:37;18.45;;;3.63;;
47669;SDS011;33408;52.062;11.722;2023-04-25T09:30:16;17.67;;;3.40;;
47669;SDS011;33408;52.062;11.722;2023-04-25T09:32:43;14.93;;;3.03;;
47669;SDS011;33408;52.062;11.722;2023-04-25T09:35:11;10.13;;;3.00;;
47669;SDS011;33408;52.062;11.722;2023-04-25T09:37:49;9.38;;;3.05;;
47669;SDS011;33408;52.062;11.722;2023-04-25T09:40:17;10.02;;;2.83;;
47669;SDS011;33408;52.062;11.722;2023-04-25T09:42:44;10.85;;;3.17;;
47669;SDS011;33408;52.062;11.722;2023-04-25T09:45:12;17.42;;;2.90;;
47669;SDS011;33408;52.062;11.722;2023-04-25T09:47:40;8.90;;;2.33;;
47669;SDS011;33408;52.062;11.722;2023-04-25T09:50:15;10.50;;;2.80;;
47669;SDS011;33408;52.062;11.722;2023-04-25T09:52:42;10.18;;;2.72;;
47669;SDS011;33408;52.062;11.722;2023-04-25T09:55:09;9.40;;;2.95;;
47669;SDS011;33408;52.062;11.722;2023-04-25T09:57:36;9.40;;;2.25;;
47669;SDS011;33408;52.062;11.722;2023-04-25T10:00:05;13.43;;;3.17;;
47669;SDS011;33408;52.062;11.722;2023-04-25T10:02:37;9.70;;;2.70;;
47669;SDS011;33408;52.062;11.722;2023-04-25T10:05:08;12.20;;;3.42;;
47669;SDS011;33408;52.062;11.722;2023-04-25T10:07:38;17.38;;;3.63;;
47669;SDS011;33408;52.062;11.722;2023-04-25T10:10:06;11.25;;;3.30;;
47669;SDS011;33408;52.062;11.722;2023-04-25T10:12:34;10.80;;;3.47;;
47669;SDS011;33408;52.062;11.722;2023-04-25T10:15:00;11.48;;;2.95;;
47669;SDS011;33408;52.062;11.722;2023-04-25T10:17:29;11.35;;;3.10;;
47669;SDS011;33408;52.062;11.722;2023-04-25T10:19:57;10.90;;;3.33;;
47669;SDS011;33408;52.062;11.722;2023-04-25T10:22:26;12.52;;;3.50;;
47669;SDS011;33408;52.062;11.722;2023-04-25T10:24:58;14.35;;;2.63;;
47669;SDS011;33408;52.062;11.722;2023-04-25T10:27:26;9.82;;;2.47;;
47669;SDS011;33408;52.062;11.722;2023-04-25T10:30:01;10.85;;;2.78;;
47669;SDS011;33408;52.062;11.722;2023-04-25T10:32:30;12.88;;;2.78;;
47669;SDS011;33408;52.062;11.722;2023-04-25T10:34:57;12.10;;;2.88;;
47669;SDS011;33408;52.062;11.722;2023-04-25T10:37:24;13.10;;;2.92;;
47669;SDS011;33408;52.062;11.722;2023-04-25T10:39:50;11.30;;;2.85;;
47669;SDS011;33408;52.062;11.722;2023-04-25T10:42:19;11.07;;;2.63;;
47669;SDS011;33408;52.062;11.722;2023-04-25T10:45:00;17.40;;;4.68;;
47669;SDS011;33408;52.062;11.722;2023-04-25T10:47:34;10.57;;;3.13;;
47669;SDS011;33408;52.062;11.722;2023-04-25T10:50:04;15.40;;;4.40;;
47669;SDS011;33408;52.062;11.722;2023-04-25T10:52:32;12.90;;;3.05;;
47669;SDS011;33408;52.062;11.722;2023-04-25T10:54:59;11.30;;;3.03;;
47669;SDS011;33408;52.062;11.722;2023-04-25T10:57:36;13.95;;;2.95;;
47669;SDS011;33408;52.062;11.722;2023-04-25T11:00:05;12.07;;;2.92;;
47669;SDS011;33408;52.062;11.722;2023-04-25T11:02:43;11.52;;;3.05;;
47669;SDS011;33408;52.062;11.722;2023-04-25T11:05:15;11.85;;;3.10;;
47669;SDS011;33408;52.062;11.722;2023-04-25T11:07:49;11.10;;;3.10;;
47669;SDS011;33408;52.062;11.722;2023-04-25T11:10:17;10.90;;;3.58;;
47669;SDS011;33408;52.062;11.722;2023-04-25T11:12:46;10.23;;;3.78;;
47669;SDS011;33408;52.062;11.722;2023-04-25T11:15:13;15.18;;;3.67;;
47669;SDS011;33408;52.062;11.722;2023-04-25T11:17:40;15.27;;;3.78;;
47669;SDS011;33408;52.062;11.722;2023-04-25T11:20:08;8.65;;;3.42;;
47669;SDS011;33408;52.062;11.722;2023-04-25T11:22:37;9.40;;;3.15;;
47669;SDS011;33408;52.062;11.722;2023-04-25T11:25:04;10.40;;;2.33;;
47669;SDS011;33408;52.062;11.722;2023-04-25T11:27:34;10.07;;;2.50;;
47669;SDS011;33408;52.062;11.722;2023-04-25T11:30:12;9.32;;;3.15;;
47669;SDS011;33408;52.062;11.722;2023-04-25T11:32:40;16.17;;;3.13;;
47669;SDS011;33408;52.062;11.722;2023-04-25T11:35:08;11.05;;;2.45;;
47669;SDS011;33408;52.062;11.722;2023-04-25T11:37:35;10.63;;;2.67;;
47669;SDS011;33408;52.062;11.722;2023-04-25T11:40:02;5.88;;;2.17;;
47669;SDS011;33408;52.062;11.722;2023-04-25T11:42:31;13.25;;;2.97;;
47669;SDS011;33408;52.062;11.722;2023-04-25T11:44:58;9.30;;;2.70;;
47669;SDS011;33408;52.062;11.722;2023-04-25T11:47:28;8.98;;;2.45;;
47669;SDS011;33408;52.062;11.722;2023-04-25T11:49:57;8.85;;;2.63;;
47669;SDS011;33408;52.062;11.722;2023-04-25T11:52:24;12.70;;;2.38;;
47669;SDS011;33408;52.062;11.722;2023-04-25T11:54:51;10.30;;;2.42;;
47669;SDS011;33408;52.062;11.722;2023-04-25T11:57:19;5.18;;;1.80;;
47669;SDS011;33408;52.062;11.722;2023-04-25T11:59:47;10.25;;;2.58;;
47669;SDS011;33408;52.062;11.722;2023-04-25T12:02:23;8.60;;;2.58;;
47669;SDS011;33408;52.062;11.722;2023-04-25T12:04:52;11.02;;;2.55;;
47669;SDS011;33408;52.062;11.722;2023-04-25T12:07:19;11.88;;;2.78;;
47669;SDS011;33408;52.062;11.722;2023-04-25T12:09:51;11.32;;;3.00;;
47669;SDS011;33408;52.062;11.722;2023-04-25T12:12:18;10.70;;;2.45;;
47669;SDS011;33408;52.062;11.722;2023-04-25T12:14:46;7.95;;;2.72;;
47669;SDS011;33408;52.062;11.722;2023-04-25T12:17:13;10.13;;;2.95;;
47669;SDS011;33408;52.062;11.722;2023-04-25T12:19:40;9.60;;;2.65;;
47669;SDS011;33408;52.062;11.722;2023-04-25T12:22:19;18.75;;;3.58;;
47669;SDS011;33408;52.062;11.722;2023-04-25T12:24:47;8.77;;;3.03;;
47669;SDS011;33408;52.062;11.722;2023-04-25T12:27:14;16.67;;;2.88;;
47669;SDS011;33408;52.062;11.722;2023-04-25T12:29:49;9.75;;;2.97;;
47669;SDS011;33408;52.062;11.722;2023-04-25T12:32:17;18.70;;;3.95;;
47669;SDS011;33408;52.062;11.722;2023-04-25T12:34:43;7.70;;;2.25;;
47669;SDS011;33408;52.062;11.722;2023-04-25T12:37:11;7.53;;;2.42;;
47669;SDS011;33408;52.062;11.722;2023-04-25T12:39:39;9.15;;;2.45;;
47669;SDS011;33408;52.062;11.722;2023-04-25T12:42:05;12.43;;;2.33;;
47669;SDS011;33408;52.062;11.722;2023-04-25T12:44:32;18.13;;;2.55;;
47669;SDS011;33408;52.062;11.722;2023-04-25T12:46:59;8.75;;;2.05;;
47669;SDS011;33408;52.062;11.722;2023-04-25T12:49:28;15.85;;;3.47;;
47669;SDS011;33408;52.062;11.722;2023-04-25T12:51:54;18.88;;;3.05;;
47669;SDS011;33408;52.062;11.722;2023-04-25T12:54:21;7.63;;;2.60;;
47669;SDS011;33408;52.062;11.722;2023-04-25T12:56:49;9.38;;;1.92;;
47669;SDS011;33408;52.062;11.722;2023-04-25T12:59:16;8.15;;;2.50;;
47669;SDS011;33408;52.062;11.722;2023-04-25T13:01:42;8.68;;;2.50;;
47669;SDS011;33408;52.062;11.722;2023-04-25T13:04:10;8.63;;;2.25;;
47669;SDS011;33408;52.062;11.722;2023-04-25T13:06:36;6.57;;;2.03;;
47669;SDS011;33408;52.062;11.722;2023-04-25T13:09:03;10.40;;;2.50;;
47669;SDS011;33408;52.062;11.722;2023-04-25T13:11:31;5.00;;;2.05;;
47669;SDS011;33408;52.062;11.722;2023-04-25T13:14:00;8.60;;;2.33;;
47669;SDS011;33408;52.062;11.722;2023-04-25T13:16:27;3.40;;;1.67;;
47669;SDS011;33408;52.062;11.722;2023-04-25T13:18:53;10.05;;;2.53;;
47669;SDS011;33408;52.062;11.722;2023-04-25T13:21:21;7.60;;;1.90;;
47669;SDS011;33408;52.062;11.722;2023-04-25T13:23:47;7.20;;;2.35;;
47669;SDS011;33408;52.062;11.722;2023-04-25T13:26:14;10.15;;;2.28;;
47669;SDS011;33408;52.062;11.722;2023-04-25T13:28:41;10.68;;;2.00;;
47669;SDS011;33408;52.062;11.722;2023-04-25T13:31:09;7.68;;;2.38;;
47669;SDS011;33408;52.062;11.722;2023-04-25T13:33:35;9.40;;;2.50;;
47669;SDS011;33408;52.062;11.722;2023-04-25T13:36:02;13.20;;;2.40;;
47669;SDS011;33408;52.062;11.722;2023-04-25T13:38:30;8.88;;;2.10;;
47669;SDS011;33408;52.062;11.722;2023-04-25T13:40:57;7.65;;;2.15;;
47669;SDS011;33408;52.062;11.722;2023-04-25T13:43:23;5.72;;;1.73;;
47669;SDS011;33408;52.062;11.722;2023-04-25T13:45:50;7.43;;;1.80;;
47669;SDS011;33408;52.062;11.722;2023-04-25T13:48:18;6.82;;;1.98;;
47669;SDS011;33408;52.062;11.722;2023-04-25T13:50:45;5.53;;;1.83;;
47669;SDS011;33408;52.062;11.722;2023-04-25T13:53:12;8.70;;;2.17;;
47669;SDS011;33408;52.062;11.722;2023-04-25T13:55:39;7.75;;;2.17;;
47669;SDS011;33408;52.062;11.722;2023-04-25T13:58:05;6.38;;;2.17;;
47669;SDS011;33408;52.062;11.722;2023-04-25T14:00:35;7.13;;;2.10;;
47669;SDS011;33408;52.062;11.722;2023-04-25T14:03:03;8.15;;;1.92;;
47669;SDS011;33408;52.062;11.722;2023-04-25T14:05:33;6.93;;;2.70;;
47669;SDS011;33408;52.062;11.722;2023-04-25T14:08:03;6.45;;;1.80;;
47669;SDS011;33408;52.062;11.722;2023-04-25T14:10:30;9.23;;;2.03;;
47669;SDS011;33408;52.062;11.722;2023-04-25T14:12:57;9.40;;;2.10;;
47669;SDS011;33408;52.062;11.722;2023-04-25T14:15:27;8.80;;;1.92;;
47669;SDS011;33408;52.062;11.722;2023-04-25T14:17:53;7.25;;;2.10;;
47669;SDS011;33408;52.062;11.722;2023-04-25T14:20:20;6.88;;;2.08;;
47669;SDS011;33408;52.062;11.722;2023-04-25T14:22:50;6.30;;;1.42;;
47669;SDS011;33408;52.062;11.722;2023-04-25T14:25:18;7.05;;;1.73;;